createdAt,value
2018-10-17T00:00:39.270Z,68.45
2018-10-17T00:03:09.081Z,68.04
2018-10-17T00:05:39.239Z,68.14
2018-10-17T00:08:09.058Z,68.25
2018-10-17T00:10:39.078Z,68.80
2018-10-17T00:13:09.065Z,68.90
2018-10-17T00:15:39.002Z,68.87
2018-10-17T00:18:08.883Z,69.34
2018-10-17T00:20:38.970Z,68.87
2018-10-17T00:23:08.953Z,69.34
2018-10-17T00:25:38.861Z,69.23
2018-10-17T00:28:08.651Z,69.31
2018-10-17T00:30:38.797Z,69.36
2018-10-17T00:33:08.625Z,69.12
2018-10-17T00:35:38.536Z,69.49
2018-10-17T00:38:08.374Z,69.39
2018-10-17T00:40:38.429Z,69.21
2018-10-17T00:43:09.263Z,69.49
2018-10-17T00:45:39.069Z,69.40
2018-10-17T00:48:08.961Z,69.39
2018-10-17T00:50:38.881Z,69.47
2018-10-17T00:53:08.814Z,69.51
2018-10-17T00:55:38.953Z,69.22
2018-10-17T00:58:08.743Z,69.43
2018-10-17T01:00:38.669Z,69.20
2018-10-17T01:03:08.472Z,69.16
2018-10-17T01:05:38.221Z,69.78
2018-10-17T01:08:08.111Z,69.74
2018-10-17T01:10:38.019Z,69.11
2018-10-17T01:13:07.953Z,69.44
2018-10-17T01:15:37.834Z,69.01
2018-10-17T01:18:07.808Z,69.07
2018-10-17T01:20:37.704Z,70.18
2018-10-17T01:23:07.561Z,70.03
2018-10-17T01:25:37.494Z,70.10
2018-10-17T01:28:07.511Z,70.22
2018-10-17T01:30:37.435Z,70.62
2018-10-17T01:33:07.716Z,70.71
2018-10-17T01:35:37.555Z,70.38
2018-10-17T01:38:07.527Z,69.90
2018-10-17T01:40:37.676Z,70.21
2018-10-17T01:43:07.725Z,70.50
2018-10-17T01:45:37.497Z,70.14
2018-10-17T01:48:07.711Z,70.19
2018-10-17T01:50:37.647Z,70.51
2018-10-17T01:53:07.516Z,70.70
2018-10-17T01:55:37.693Z,70.19
2018-10-17T01:58:07.511Z,70.41
2018-10-17T02:00:37.438Z,70.62
2018-10-17T02:03:07.407Z,70.18
2018-10-17T02:05:37.522Z,70.35
2018-10-17T02:08:07.573Z,70.44
2018-10-17T02:10:37.687Z,70.48
2018-10-17T02:13:08.124Z,70.36
2018-10-17T02:15:37.946Z,71.16
2018-10-17T02:18:08.014Z,70.96
2018-10-17T02:20:37.961Z,71.48
2018-10-17T02:23:08.110Z,71.58
2018-10-17T02:25:38.061Z,71.42
2018-10-17T02:28:07.928Z,71.97
2018-10-17T02:30:37.905Z,71.07
2018-10-17T02:33:08.021Z,71.42
2018-10-17T02:35:37.889Z,71.14
2018-10-17T02:38:07.766Z,71.17
2018-10-17T02:40:37.635Z,71.45
2018-10-17T02:43:07.699Z,71.92
2018-10-17T02:45:37.602Z,71.34
2018-10-17T02:48:07.629Z,71.90
2018-10-17T02:50:37.581Z,71.22
2018-10-17T02:53:07.678Z,71.49
2018-10-17T02:55:37.489Z,71.43
2018-10-17T02:58:07.336Z,71.47
2018-10-17T03:00:37.235Z,72.29
2018-10-17T03:03:07.320Z,72.37
2018-10-17T03:05:37.113Z,71.65
2018-10-17T03:08:07.222Z,71.83
2018-10-17T03:10:37.184Z,72.55
2018-10-17T03:13:07.555Z,72.30
2018-10-17T03:15:37.474Z,72.23
2018-10-17T03:18:07.376Z,72.76
2018-10-17T03:20:38.100Z,72.12
2018-10-17T03:23:08.011Z,72.26
2018-10-17T03:25:37.946Z,72.80
2018-10-17T03:28:07.834Z,73.28
2018-10-17T03:30:37.710Z,72.86
2018-10-17T03:33:07.789Z,72.19
2018-10-17T03:35:37.884Z,73.00
2018-10-17T03:38:07.956Z,73.39
2018-10-17T03:40:38.021Z,72.32
2018-10-17T03:43:07.913Z,72.86
2018-10-17T03:45:37.913Z,72.81
2018-10-17T03:48:07.844Z,72.33
2018-10-17T03:50:37.913Z,72.64
2018-10-17T03:53:07.833Z,72.50
2018-10-17T03:55:37.926Z,73.40
2018-10-17T03:58:07.915Z,73.31
2018-10-17T04:00:37.786Z,72.73
2018-10-17T04:03:07.893Z,72.93
2018-10-17T04:05:37.772Z,73.61
2018-10-17T04:08:07.624Z,73.46
2018-10-17T04:10:37.571Z,73.81
2018-10-17T04:13:07.652Z,73.96
2018-10-17T04:15:37.566Z,73.68
2018-10-17T04:18:07.458Z,73.81
2018-10-17T04:20:37.492Z,73.78
2018-10-17T04:23:07.406Z,73.96
2018-10-17T04:25:37.328Z,73.44
2018-10-17T04:28:07.282Z,74.05
2018-10-17T04:30:37.374Z,73.22
2018-10-17T04:33:07.313Z,73.28
2018-10-17T04:35:37.197Z,73.83
2018-10-17T04:38:07.265Z,73.57
2018-10-17T04:40:37.112Z,74.15
2018-10-17T04:43:07.107Z,73.51
2018-10-17T04:45:37.324Z,72.88
2018-10-17T04:48:07.293Z,73.14
2018-10-17T04:50:37.149Z,73.63
2018-10-17T04:53:07.121Z,73.23
2018-10-17T04:55:36.875Z,73.89
2018-10-17T04:58:07.061Z,73.63
2018-10-17T05:00:36.911Z,73.52
2018-10-17T05:03:07.782Z,73.04
2018-10-17T05:05:37.570Z,73.25
2018-10-17T05:08:08.065Z,73.58
2018-10-17T05:10:37.961Z,73.32
2018-10-17T05:13:08.194Z,74.20
2018-10-17T05:15:37.920Z,73.74
2018-10-17T05:18:07.869Z,74.04
2018-10-17T05:20:37.644Z,74.67
2018-10-17T05:23:07.702Z,74.80
2018-10-17T05:25:37.940Z,74.48
2018-10-17T05:28:07.957Z,74.70
2018-10-17T05:30:37.953Z,74.70
2018-10-17T05:33:08.179Z,74.42
2018-10-17T05:35:38.131Z,74.92
2018-10-17T05:38:08.236Z,74.72
2018-10-17T05:40:37.983Z,74.83
2018-10-17T05:43:08.050Z,75.05
2018-10-17T05:45:38.024Z,74.91
2018-10-17T05:48:07.877Z,74.80
2018-10-17T05:50:37.821Z,75.74
2018-10-17T05:53:07.784Z,75.07
2018-10-17T05:55:37.693Z,74.72
2018-10-17T05:58:07.892Z,75.06
2018-10-17T06:00:37.736Z,76.01
2018-10-17T06:03:08.273Z,75.10
2018-10-17T06:05:38.184Z,75.96
2018-10-17T06:08:07.962Z,75.30
2018-10-17T06:10:37.842Z,75.32
2018-10-17T06:13:07.962Z,76.06
2018-10-17T06:15:37.714Z,75.78
2018-10-17T06:18:07.816Z,75.94
2018-10-17T06:20:37.692Z,75.25
2018-10-17T06:23:07.590Z,75.83
2018-10-17T06:25:37.525Z,75.18
2018-10-17T06:28:07.369Z,75.71
2018-10-17T06:30:37.468Z,75.45
2018-10-17T06:33:07.225Z,75.17
2018-10-17T06:35:37.188Z,75.41
2018-10-17T06:38:07.517Z,75.35
2018-10-17T06:40:37.624Z,75.24
2018-10-17T06:43:07.825Z,75.49
2018-10-17T06:45:37.867Z,75.18
2018-10-17T06:48:07.849Z,75.31
2018-10-17T06:50:38.134Z,74.86
2018-10-17T06:53:08.467Z,75.28
2018-10-17T06:55:38.305Z,75.12
2018-10-17T06:58:08.470Z,74.73
2018-10-17T07:00:38.345Z,74.90
2018-10-17T07:03:08.325Z,75.19
2018-10-17T07:05:38.157Z,74.20
2018-10-17T07:08:08.049Z,74.17
2018-10-17T07:10:38.084Z,74.84
2018-10-17T07:13:07.682Z,74.68
2018-10-17T07:15:37.612Z,74.66
2018-10-17T07:18:08.224Z,74.57
2018-10-17T07:20:38.625Z,73.98
2018-10-17T07:23:09.044Z,74.06
2018-10-17T07:25:39.149Z,73.64
2018-10-17T07:28:09.131Z,74.05
2018-10-17T07:30:38.974Z,73.37
2018-10-17T07:33:09.100Z,72.84
2018-10-17T07:35:39.213Z,73.59
2018-10-17T07:38:09.143Z,72.48
2018-10-17T07:40:39.160Z,72.39
2018-10-17T07:43:08.937Z,72.60
2018-10-17T07:45:39.300Z,71.58
2018-10-17T07:48:09.436Z,71.96
2018-10-17T07:50:39.163Z,71.31
2018-10-17T07:53:09.193Z,71.66
2018-10-17T07:55:39.150Z,71.12
2018-10-17T07:58:09.109Z,70.03
2018-10-17T08:00:39.353Z,70.23
2018-10-17T08:03:09.436Z,69.12
2018-10-17T08:05:39.333Z,68.54
2018-10-17T08:08:09.291Z,68.85
2018-10-17T08:10:39.371Z,68.65
2018-10-17T08:13:09.394Z,68.37
2018-10-17T08:15:39.262Z,68.61
2018-10-17T08:18:09.423Z,67.95
2018-10-17T08:20:39.345Z,68.13
2018-10-17T08:23:09.480Z,67.07
2018-10-17T08:25:39.672Z,67.11
2018-10-17T08:28:09.740Z,66.47
2018-10-17T08:30:39.885Z,67.30
2018-10-17T08:33:10.141Z,66.87
2018-10-17T08:35:40.516Z,66.03
2018-10-17T08:38:10.921Z,66.67
2018-10-17T08:40:40.795Z,66.17
2018-10-17T08:43:10.705Z,65.49
2018-10-17T08:45:40.824Z,65.63
2018-10-17T08:48:10.785Z,64.48
2018-10-17T08:50:41.460Z,64.99
2018-10-17T08:53:11.470Z,64.31
2018-10-17T08:55:41.342Z,64.74
2018-10-17T08:58:11.302Z,64.08
2018-10-17T09:00:41.128Z,64.11
2018-10-17T09:03:11.410Z,64.03
2018-10-17T09:05:52.471Z,63.53
2018-10-17T09:08:22.436Z,63.49
2018-10-17T09:10:52.357Z,64.00
2018-10-17T09:13:22.554Z,63.79
2018-10-17T09:15:52.604Z,62.91
2018-10-17T09:20:47.374Z,63.19
2018-10-17T09:23:17.385Z,61.89
2018-10-17T09:25:47.385Z,62.47
2018-10-17T09:28:17.688Z,61.92
2018-10-17T09:30:47.834Z,61.88
2018-10-17T09:33:18.004Z,62.39
2018-10-17T09:35:47.945Z,62.51
2018-10-17T09:38:18.044Z,61.70
2018-10-17T09:40:48.155Z,61.95
2018-10-17T09:43:18.389Z,60.99
2018-10-17T09:45:48.326Z,62.01
2018-10-17T09:48:18.222Z,61.42
2018-10-17T09:50:48.036Z,61.42
2018-10-17T09:53:18.212Z,60.58
2018-10-17T09:55:48.027Z,61.07
2018-10-17T09:58:17.966Z,60.58
2018-10-17T10:00:53.019Z,61.15
2018-10-17T10:03:22.940Z,60.49
2018-10-17T10:05:52.899Z,60.70
2018-10-17T10:08:23.235Z,59.94
2018-10-17T10:10:53.302Z,59.71
2018-10-17T10:13:23.480Z,60.24
2018-10-17T10:15:53.462Z,59.69
2018-10-17T10:18:23.435Z,59.28
2018-10-17T10:20:53.628Z,58.81
2018-10-17T10:23:23.561Z,59.27
2018-10-17T10:25:53.413Z,59.83
2018-10-17T10:28:23.603Z,59.87
2018-10-17T10:30:53.397Z,60.20
2018-10-17T10:33:23.222Z,59.59
2018-10-17T10:35:53.325Z,59.01
2018-10-17T10:38:23.340Z,59.00
2018-10-17T10:40:53.469Z,59.13
2018-10-17T10:43:23.812Z,58.85
2018-10-17T10:45:53.683Z,58.69
2018-10-17T10:48:23.788Z,58.64
2018-10-17T10:50:53.748Z,58.47
2018-10-17T10:53:23.702Z,59.33
2018-10-17T10:55:53.707Z,59.22
2018-10-17T10:58:23.989Z,58.72
2018-10-17T11:00:53.668Z,57.68
2018-10-17T11:03:23.887Z,57.59
2018-10-17T11:05:54.085Z,57.31
2018-10-17T11:08:24.196Z,57.60
2018-10-17T11:10:54.897Z,57.36
2018-10-17T11:13:25.357Z,57.63
2018-10-17T11:15:55.437Z,57.36
2018-10-17T11:18:25.572Z,58.53
2018-10-17T11:20:55.573Z,57.23
2018-10-17T11:23:25.381Z,57.30
2018-10-17T11:25:55.760Z,57.36
2018-10-17T11:28:26.046Z,56.69
2018-10-17T11:30:56.003Z,57.47
2018-10-17T11:33:25.839Z,56.88
2018-10-17T11:35:55.804Z,56.13
2018-10-17T11:38:25.718Z,56.29
2018-10-17T11:40:55.796Z,57.14
2018-10-17T11:43:25.787Z,56.55
2018-10-17T11:45:55.760Z,56.42
2018-10-17T11:48:25.693Z,56.89
2018-10-17T11:50:55.627Z,56.46
2018-10-17T11:53:25.526Z,56.54
2018-10-17T11:55:55.591Z,56.22
2018-10-17T11:58:25.630Z,56.25
2018-10-17T12:00:55.875Z,55.80
2018-10-17T12:03:25.954Z,54.94
2018-10-17T12:05:55.896Z,55.17
2018-10-17T12:08:25.609Z,55.64
2018-10-17T12:10:55.628Z,55.23
2018-10-17T12:13:25.431Z,54.32
2018-10-17T12:15:55.464Z,55.04
2018-10-17T12:18:25.427Z,53.98
2018-10-17T12:20:55.378Z,54.28
2018-10-17T12:23:25.311Z,53.86
2018-10-17T12:25:55.479Z,54.45
2018-10-17T12:28:25.527Z,53.79
2018-10-17T12:30:55.520Z,53.95
2018-10-17T12:33:25.600Z,54.60
2018-10-17T12:35:55.621Z,54.71
2018-10-17T12:38:25.528Z,53.87
2018-10-17T12:40:55.678Z,53.74
2018-10-17T12:43:25.628Z,53.65
2018-10-17T12:45:55.996Z,52.70
2018-10-17T12:48:25.916Z,52.51
2018-10-17T12:50:55.806Z,52.54
2018-10-17T12:53:25.852Z,51.91
2018-10-17T12:55:55.930Z,51.14
2018-10-17T12:58:25.745Z,51.64
2018-10-17T13:00:55.958Z,51.53
2018-10-17T13:03:26.256Z,51.44
2018-10-17T13:05:56.220Z,50.94
2018-10-17T13:08:26.175Z,51.36
2018-10-17T13:10:56.121Z,51.50
2018-10-17T13:13:26.147Z,51.25
2018-10-17T13:15:56.053Z,50.71
2018-10-17T13:18:26.014Z,49.59
2018-10-17T13:20:55.804Z,49.43
2018-10-17T13:23:25.730Z,48.83
2018-10-17T13:25:55.688Z,50.33
2018-10-17T13:28:25.625Z,49.95
2018-10-17T13:30:55.687Z,49.79
2018-10-17T13:33:25.489Z,50.89
2018-10-17T13:35:55.777Z,50.77
2018-10-17T13:38:25.720Z,49.91
2018-10-17T13:40:55.699Z,51.13
2018-10-17T13:43:25.847Z,50.63
2018-10-17T13:45:55.779Z,51.11
2018-10-17T13:48:25.773Z,51.22
2018-10-17T13:50:56.039Z,50.90
2018-10-17T13:53:26.115Z,50.39
2018-10-17T13:55:56.035Z,50.58
2018-10-17T13:58:25.958Z,50.18
2018-10-17T14:00:55.822Z,50.02
2018-10-17T14:03:25.681Z,50.46
2018-10-17T14:05:55.688Z,49.87
2018-10-17T14:08:25.701Z,50.46
2018-10-17T14:10:55.600Z,50.46
2018-10-17T14:13:25.994Z,50.81
2018-10-17T14:15:55.745Z,49.70
2018-10-17T14:18:25.791Z,50.15
2018-10-17T14:20:55.797Z,50.49
2018-10-17T14:23:25.670Z,50.92
2018-10-17T14:25:55.623Z,50.71
2018-10-17T14:28:25.982Z,50.20
2018-10-17T14:30:56.052Z,50.52
2018-10-17T14:33:26.125Z,50.54
2018-10-17T14:35:56.259Z,50.39
2018-10-17T14:38:26.179Z,50.22
2018-10-17T14:40:56.216Z,50.52
2018-10-17T14:43:26.125Z,49.28
2018-10-17T14:45:55.989Z,49.34
2018-10-17T14:48:26.119Z,50.23
2018-10-17T14:50:56.030Z,50.96
2018-10-17T14:53:25.956Z,50.18
2018-10-17T14:55:55.908Z,49.86
2018-10-17T14:58:25.791Z,50.28
2018-10-17T15:00:55.954Z,49.96
2018-10-17T15:03:26.092Z,50.39
2018-10-17T15:05:56.124Z,50.83
2018-10-17T15:08:26.057Z,51.25
2018-10-17T15:10:56.372Z,51.78
2018-10-17T15:13:26.467Z,51.93
2018-10-17T15:15:56.480Z,52.60
2018-10-17T15:18:26.616Z,52.45
2018-10-17T15:20:56.513Z,51.22
2018-10-17T15:23:26.356Z,51.46
2018-10-17T15:25:56.388Z,52.73
2018-10-17T15:28:26.404Z,51.93
2018-10-17T15:30:56.384Z,53.03
2018-10-17T15:33:26.492Z,53.90
2018-10-17T15:35:56.430Z,54.32
2018-10-17T15:38:26.696Z,54.29
2018-10-17T15:40:56.653Z,55.32
2018-10-17T15:43:27.279Z,55.91
2018-10-17T15:45:57.511Z,55.02
2018-10-17T15:48:27.379Z,56.10
2018-10-17T15:50:57.228Z,56.63
2018-10-17T15:53:27.255Z,55.78
2018-10-17T15:55:57.269Z,56.05
2018-10-17T15:58:27.253Z,57.10
2018-10-17T16:00:57.807Z,56.64
2018-10-17T16:03:28.101Z,56.84
2018-10-17T16:05:58.321Z,58.02
2018-10-17T16:08:28.501Z,57.58
2018-10-17T16:10:58.416Z,58.34
2018-10-17T16:13:28.381Z,59.12
2018-10-17T16:15:58.338Z,58.85
2018-10-17T16:18:28.302Z,59.73
2018-10-17T16:20:58.536Z,59.21
2018-10-17T16:23:28.516Z,60.18
2018-10-17T16:25:58.626Z,59.65
2018-10-17T16:28:28.541Z,61.01
2018-10-17T16:30:58.550Z,60.68
2018-10-17T16:33:28.527Z,60.28
2018-10-17T16:35:58.747Z,61.32
2018-10-17T16:38:28.729Z,60.63
2018-10-17T16:40:58.945Z,61.36
2018-10-17T16:43:28.736Z,60.81
2018-10-17T16:45:58.765Z,61.38
2018-10-17T16:48:28.948Z,61.89
2018-10-17T16:50:59.037Z,62.15
2018-10-17T16:53:28.953Z,62.55
2018-10-17T16:55:58.870Z,63.32
2018-10-17T16:58:28.916Z,63.21
2018-10-17T17:00:58.726Z,63.54
2018-10-17T17:03:28.776Z,64.15
2018-10-17T17:05:58.788Z,63.97
2018-10-17T17:08:28.871Z,64.41
2018-10-17T17:10:59.075Z,65.02
2018-10-17T17:13:29.038Z,65.05
2018-10-17T17:15:58.984Z,65.30
2018-10-17T17:18:29.053Z,66.00
2018-10-17T17:20:59.176Z,66.23
2018-10-17T17:23:29.168Z,65.96
2018-10-17T17:25:59.179Z,66.47
2018-10-17T17:28:29.124Z,67.07
2018-10-17T17:30:59.389Z,67.45
2018-10-17T17:33:29.665Z,67.58
2018-10-17T17:35:59.704Z,67.61
2018-10-17T17:38:30.388Z,67.42
2018-10-17T17:41:00.337Z,67.64
2018-10-17T17:43:30.238Z,67.69
2018-10-17T17:46:00.258Z,68.54
2018-10-17T17:48:30.720Z,68.32
2018-10-17T17:51:00.762Z,68.87
2018-10-17T17:53:30.771Z,68.33
2018-10-17T17:56:01.026Z,69.25
2018-10-17T17:58:31.049Z,68.96
2018-10-17T18:01:01.021Z,70.02
2018-10-17T18:03:30.950Z,69.84
2018-10-17T18:06:00.838Z,70.82
2018-10-17T18:08:30.838Z,70.65
2018-10-17T18:11:20.500Z,70.98
2018-10-17T18:13:51.037Z,70.60
2018-10-17T18:16:21.147Z,70.21
2018-10-17T18:18:51.204Z,69.40
2018-10-17T18:21:21.281Z,68.95
2018-10-17T18:23:51.351Z,69.44
2018-10-17T18:26:21.213Z,69.82
2018-10-17T18:28:51.421Z,70.19
2018-10-17T18:31:21.355Z,69.88
2018-10-17T18:33:51.579Z,70.53
2018-10-17T18:36:21.609Z,70.80
2018-10-17T18:38:51.625Z,70.52
2018-10-17T18:41:21.506Z,69.97
2018-10-17T18:43:51.422Z,69.95
2018-10-17T18:46:21.432Z,70.35
2018-10-17T18:48:51.240Z,71.10
2018-10-17T18:51:21.376Z,71.11
2018-10-17T18:53:51.220Z,70.81
2018-10-17T18:56:21.106Z,71.09
2018-10-17T18:58:51.043Z,71.21
2018-10-17T19:01:20.979Z,71.02
2018-10-17T19:03:50.714Z,71.09
2018-10-17T19:06:20.547Z,71.49
2018-10-17T19:08:50.444Z,72.37
2018-10-17T19:11:20.420Z,72.34
2018-10-17T19:13:50.260Z,71.58
2018-10-17T19:16:20.116Z,72.08
2018-10-17T19:18:50.211Z,72.93
2018-10-17T19:21:20.069Z,72.39
2018-10-17T19:23:50.221Z,72.98
2018-10-17T19:26:20.855Z,72.18
2018-10-17T19:28:51.065Z,73.28
2018-10-17T19:31:20.871Z,72.65
2018-10-17T19:33:50.646Z,72.56
2018-10-17T19:36:20.643Z,73.55
2018-10-17T19:38:50.577Z,73.02
2018-10-17T19:41:20.520Z,73.54
2018-10-17T19:43:50.693Z,73.96
2018-10-17T19:46:20.551Z,74.30
2018-10-17T19:48:50.448Z,74.15
2018-10-17T19:51:20.332Z,73.82
2018-10-17T19:53:50.365Z,73.87
2018-10-17T19:56:20.290Z,74.21
2018-10-17T19:58:50.529Z,75.02
2018-10-17T20:01:20.852Z,75.36
2018-10-17T20:03:50.789Z,75.02
2018-10-17T20:06:20.653Z,74.82
2018-10-17T20:08:50.667Z,75.48
2018-10-17T20:11:20.593Z,75.61
2018-10-17T20:13:50.615Z,75.06
2018-10-17T20:16:20.560Z,75.67
2018-10-17T20:18:50.641Z,76.34
2018-10-17T20:21:20.552Z,76.20
2018-10-17T20:23:50.561Z,76.03
2018-10-17T20:26:20.532Z,76.62
2018-10-17T20:28:50.357Z,75.95
2018-10-17T20:31:20.087Z,76.95
2018-10-17T20:33:50.162Z,76.81
2018-10-17T20:36:20.047Z,77.13
2018-10-17T20:38:50.263Z,76.90
2018-10-17T20:41:20.495Z,77.30
2018-10-17T20:43:50.460Z,77.37
2018-10-17T20:46:20.253Z,77.76
2018-10-17T20:48:50.290Z,77.79
2018-10-17T20:51:20.588Z,77.00
2018-10-17T20:53:50.544Z,77.08
2018-10-17T20:56:20.549Z,78.03
2018-10-17T20:58:50.257Z,77.68
2018-10-17T21:01:19.995Z,78.02
2018-10-17T21:03:49.861Z,77.94
2018-10-17T21:06:19.857Z,78.19
2018-10-17T21:08:49.850Z,78.44
2018-10-17T21:11:19.588Z,78.77
2018-10-17T21:13:49.359Z,78.58
2018-10-17T21:16:19.294Z,78.90
2018-10-17T21:18:49.120Z,78.77
2018-10-17T21:21:19.089Z,79.62
2018-10-17T21:23:48.836Z,79.59
2018-10-17T21:26:19.124Z,79.74
2018-10-17T21:28:49.132Z,79.38
2018-10-17T21:31:18.950Z,79.90
2018-10-17T21:33:48.756Z,79.00
2018-10-17T21:36:18.546Z,79.79
2018-10-17T21:38:48.393Z,80.05
2018-10-17T21:41:18.375Z,79.75
2018-10-17T21:43:48.366Z,79.62
2018-10-17T21:46:18.241Z,80.14
2018-10-17T21:48:48.151Z,79.81
2018-10-17T21:51:18.079Z,79.95
2018-10-17T21:53:48.073Z,79.94
2018-10-17T21:56:18.032Z,79.77
2018-10-17T21:58:48.072Z,80.29
2018-10-17T22:01:18.223Z,79.92
2018-10-17T22:03:48.276Z,80.37
2018-10-17T22:06:18.087Z,80.53
2018-10-17T22:08:48.152Z,80.74
2018-10-17T22:11:18.262Z,80.63
2018-10-17T22:13:48.100Z,80.53
2018-10-17T22:16:18.023Z,80.29
2018-10-17T22:18:48.185Z,80.67
2018-10-17T22:21:18.315Z,80.85
2018-10-17T22:23:48.191Z,80.33
2018-10-17T22:26:18.287Z,80.67
2018-10-17T22:28:48.223Z,80.73
2018-10-17T22:31:18.052Z,80.31
2018-10-17T22:33:48.181Z,80.35
2018-10-17T22:36:18.062Z,80.80
2018-10-17T22:38:48.116Z,80.66
2018-10-17T22:41:18.142Z,80.38
2018-10-17T22:43:47.916Z,80.90
2018-10-17T22:46:17.981Z,81.49
2018-10-17T22:48:47.852Z,81.67
2018-10-17T22:51:17.947Z,81.73
2018-10-17T22:53:47.794Z,81.24
2018-10-17T22:56:17.702Z,81.54
2018-10-17T22:58:47.593Z,81.55
2018-10-17T23:01:17.872Z,82.29
2018-10-17T23:03:47.839Z,82.26
2018-10-17T23:06:17.655Z,82.16
2018-10-17T23:08:47.729Z,82.31
2018-10-17T23:11:17.592Z,81.97
2018-10-17T23:13:47.680Z,82.51
2018-10-17T23:16:17.706Z,82.16
2018-10-17T23:18:47.795Z,82.07
2018-10-17T23:21:17.849Z,81.91
2018-10-17T23:23:47.851Z,82.76
2018-10-17T23:26:17.893Z,82.32
2018-10-17T23:28:47.705Z,82.34
2018-10-17T23:31:17.675Z,82.93
2018-10-17T23:33:47.669Z,82.69
2018-10-17T23:36:17.583Z,82.65
2018-10-17T23:38:47.347Z,82.87
2018-10-17T23:41:17.444Z,82.77
2018-10-17T23:43:47.810Z,83.01
2018-10-17T23:46:18.120Z,83.05
2018-10-17T23:48:48.092Z,82.05
2018-10-17T23:51:18.025Z,83.14
2018-10-17T23:53:48.162Z,83.17
2018-10-17T23:56:18.378Z,82.38
2018-10-17T23:58:48.254Z,83.56
